sensor_id;sensor_type;location;lat;lon;timestamp;P1;durP1;ratioP1;P2;durP2;ratioP2
42110;SDS011;27766;52.174;5.456;2022-08-06T00:02:27;3.95;;;1.15;;
42110;SDS011;27766;52.174;5.456;2022-08-06T00:07:26;6.28;;;1.13;;
42110;SDS011;27766;52.174;5.456;2022-08-06T00:09:57;1.52;;;1.05;;
42110;SDS011;27766;52.174;5.456;2022-08-06T00:12:29;2.90;;;1.25;;
42110;SDS011;27766;52.174;5.456;2022-08-06T00:14:59;4.32;;;1.65;;
42110;SDS011;27766;52.174;5.456;2022-08-06T00:17:42;3.92;;;1.00;;
42110;SDS011;27766;52.174;5.456;2022-08-06T00:20:12;2.47;;;1.10;;
42110;SDS011;27766;52.174;5.456;2022-08-06T00:22:57;3.03;;;1.20;;
42110;SDS011;27766;52.174;5.456;2022-08-06T00:25:27;4.05;;;1.50;;
42110;SDS011;27766;52.174;5.456;2022-08-06T00:28:01;5.90;;;1.52;;
42110;SDS011;27766;52.174;5.456;2022-08-06T00:30:35;3.28;;;1.50;;
42110;SDS011;27766;52.174;5.456;2022-08-06T00:33:03;2.80;;;1.30;;
42110;SDS011;27766;52.174;5.456;2022-08-06T00:35:35;7.32;;;2.33;;
42110;SDS011;27766;52.174;5.456;2022-08-06T00:38:04;2.75;;;1.40;;
42110;SDS011;27766;52.174;5.456;2022-08-06T00:40:36;4.60;;;1.40;;
42110;SDS011;27766;52.174;5.456;2022-08-06T00:43:23;3.53;;;1.90;;
42110;SDS011;27766;52.174;5.456;2022-08-06T00:45:52;6.45;;;1.30;;
42110;SDS011;27766;52.174;5.456;2022-08-06T00:48:22;7.10;;;1.40;;
42110;SDS011;27766;52.174;5.456;2022-08-06T00:51:09;3.58;;;1.60;;
42110;SDS011;27766;52.174;5.456;2022-08-06T00:53:44;11.18;;;2.08;;
42110;SDS011;27766;52.174;5.456;2022-08-06T00:56:14;3.72;;;1.65;;
42110;SDS011;27766;52.174;5.456;2022-08-06T00:58:41;6.13;;;1.13;;
42110;SDS011;27766;52.174;5.456;2022-08-06T01:01:09;4.15;;;1.30;;
42110;SDS011;27766;52.174;5.456;2022-08-06T01:03:44;3.13;;;1.35;;
42110;SDS011;27766;52.174;5.456;2022-08-06T01:06:18;2.42;;;1.15;;
42110;SDS011;27766;52.174;5.456;2022-08-06T01:09:09;2.90;;;1.08;;
42110;SDS011;27766;52.174;5.456;2022-08-06T01:11:37;3.03;;;1.42;;
42110;SDS011;27766;52.174;5.456;2022-08-06T01:14:05;4.30;;;1.58;;
42110;SDS011;27766;52.174;5.456;2022-08-06T01:19:22;2.00;;;1.10;;
42110;SDS011;27766;52.174;5.456;2022-08-06T01:28:20;4.88;;;1.13;;
42110;SDS011;27766;52.174;5.456;2022-08-06T01:31:05;4.38;;;1.50;;
42110;SDS011;27766;52.174;5.456;2022-08-06T01:33:37;2.38;;;1.08;;
42110;SDS011;27766;52.174;5.456;2022-08-06T01:36:14;3.17;;;1.00;;
42110;SDS011;27766;52.174;5.456;2022-08-06T01:38:56;8.05;;;1.85;;
42110;SDS011;27766;52.174;5.456;2022-08-06T01:41:30;3.38;;;1.35;;
42110;SDS011;27766;52.174;5.456;2022-08-06T01:44:46;5.45;;;1.17;;
42110;SDS011;27766;52.174;5.456;2022-08-06T01:47:15;4.85;;;1.58;;
42110;SDS011;27766;52.174;5.456;2022-08-06T01:49:48;1.92;;;0.95;;
42110;SDS011;27766;52.174;5.456;2022-08-06T01:52:38;5.03;;;1.33;;
42110;SDS011;27766;52.174;5.456;2022-08-06T01:55:08;4.97;;;1.77;;
42110;SDS011;27766;52.174;5.456;2022-08-06T01:57:40;3.60;;;0.95;;
42110;SDS011;27766;52.174;5.456;2022-08-06T02:00:31;2.03;;;0.98;;
42110;SDS011;27766;52.174;5.456;2022-08-06T02:03:03;3.17;;;1.30;;
42110;SDS011;27766;52.174;5.456;2022-08-06T02:05:36;1.95;;;1.20;;
42110;SDS011;27766;52.174;5.456;2022-08-06T02:08:19;2.55;;;1.30;;
42110;SDS011;27766;52.174;5.456;2022-08-06T02:11:07;5.85;;;1.48;;
42110;SDS011;27766;52.174;5.456;2022-08-06T02:13:57;8.05;;;1.52;;
42110;SDS011;27766;52.174;5.456;2022-08-06T02:16:28;7.25;;;1.65;;
42110;SDS011;27766;52.174;5.456;2022-08-06T02:18:58;9.02;;;1.52;;
42110;SDS011;27766;52.174;5.456;2022-08-06T02:21:38;1.23;;;0.85;;
42110;SDS011;27766;52.174;5.456;2022-08-06T02:24:09;8.00;;;1.38;;
42110;SDS011;27766;52.174;5.456;2022-08-06T02:26:38;6.57;;;1.33;;
42110;SDS011;27766;52.174;5.456;2022-08-06T02:29:08;6.43;;;1.50;;
42110;SDS011;27766;52.174;5.456;2022-08-06T02:31:41;3.67;;;1.92;;
42110;SDS011;27766;52.174;5.456;2022-08-06T02:34:18;5.82;;;1.45;;
42110;SDS011;27766;52.174;5.456;2022-08-06T02:37:02;4.13;;;1.48;;
42110;SDS011;27766;52.174;5.456;2022-08-06T02:39:41;3.00;;;1.70;;
42110;SDS011;27766;52.174;5.456;2022-08-06T02:42:24;3.88;;;1.60;;
42110;SDS011;27766;52.174;5.456;2022-08-06T02:45:05;7.57;;;1.50;;
42110;SDS011;27766;52.174;5.456;2022-08-06T02:47:48;8.02;;;1.67;;
42110;SDS011;27766;52.174;5.456;2022-08-06T02:50:39;5.22;;;1.75;;
42110;SDS011;27766;52.174;5.456;2022-08-06T02:53:16;4.30;;;1.83;;
42110;SDS011;27766;52.174;5.456;2022-08-06T02:56:00;5.32;;;1.50;;
42110;SDS011;27766;52.174;5.456;2022-08-06T02:58:35;3.10;;;1.52;;
42110;SDS011;27766;52.174;5.456;2022-08-06T03:01:20;2.50;;;1.38;;
42110;SDS011;27766;52.174;5.456;2022-08-06T03:03:53;3.50;;;1.88;;
42110;SDS011;27766;52.174;5.456;2022-08-06T03:06:26;5.00;;;2.38;;
42110;SDS011;27766;52.174;5.456;2022-08-06T03:08:57;6.22;;;1.70;;
42110;SDS011;27766;52.174;5.456;2022-08-06T03:11:32;2.80;;;1.75;;
42110;SDS011;27766;52.174;5.456;2022-08-06T03:14:05;6.05;;;1.80;;
42110;SDS011;27766;52.174;5.456;2022-08-06T03:16:58;4.00;;;1.80;;
42110;SDS011;27766;52.174;5.456;2022-08-06T03:19:27;4.65;;;2.00;;
42110;SDS011;27766;52.174;5.456;2022-08-06T03:22:16;5.38;;;2.03;;
42110;SDS011;27766;52.174;5.456;2022-08-06T03:25:05;7.57;;;1.80;;
42110;SDS011;27766;52.174;5.456;2022-08-06T03:27:35;2.30;;;1.45;;
42110;SDS011;27766;52.174;5.456;2022-08-06T03:30:10;4.78;;;1.88;;
42110;SDS011;27766;52.174;5.456;2022-08-06T03:33:00;7.30;;;1.67;;
42110;SDS011;27766;52.174;5.456;2022-08-06T03:35:51;5.10;;;1.80;;
42110;SDS011;27766;52.174;5.456;2022-08-06T03:38:25;9.50;;;2.60;;
42110;SDS011;27766;52.174;5.456;2022-08-06T03:40:57;5.90;;;2.08;;
42110;SDS011;27766;52.174;5.456;2022-08-06T03:43:27;5.15;;;2.17;;
42110;SDS011;27766;52.174;5.456;2022-08-06T03:46:16;2.42;;;1.80;;
42110;SDS011;27766;52.174;5.456;2022-08-06T03:48:53;3.70;;;1.70;;
42110;SDS011;27766;52.174;5.456;2022-08-06T03:51:26;4.07;;;1.75;;
42110;SDS011;27766;52.174;5.456;2022-08-06T03:54:15;11.55;;;2.35;;
42110;SDS011;27766;52.174;5.456;2022-08-06T03:57:03;3.08;;;1.60;;
42110;SDS011;27766;52.174;5.456;2022-08-06T03:59:40;5.13;;;1.73;;
42110;SDS011;27766;52.174;5.456;2022-08-06T04:02:47;5.38;;;2.05;;
42110;SDS011;27766;52.174;5.456;2022-08-06T04:05:17;4.18;;;1.70;;
42110;SDS011;27766;52.174;5.456;2022-08-06T04:07:53;4.88;;;1.70;;
42110;SDS011;27766;52.174;5.456;2022-08-06T04:10:24;6.20;;;1.80;;
42110;SDS011;27766;52.174;5.456;2022-08-06T04:13:06;8.95;;;1.48;;
42110;SDS011;27766;52.174;5.456;2022-08-06T04:15:56;5.95;;;1.58;;
42110;SDS011;27766;52.174;5.456;2022-08-06T04:18:26;4.88;;;1.58;;
42110;SDS011;27766;52.174;5.456;2022-08-06T04:20:59;5.97;;;1.75;;
42110;SDS011;27766;52.174;5.456;2022-08-06T04:23:48;10.10;;;2.13;;
42110;SDS011;27766;52.174;5.456;2022-08-06T04:26:16;2.65;;;1.85;;
42110;SDS011;27766;52.174;5.456;2022-08-06T04:28:53;2.65;;;1.67;;
42110;SDS011;27766;52.174;5.456;2022-08-06T04:31:25;2.08;;;1.27;;
42110;SDS011;27766;52.174;5.456;2022-08-06T04:34:17;2.92;;;1.60;;
42110;SDS011;27766;52.174;5.456;2022-08-06T04:36:57;6.85;;;2.17;;
42110;SDS011;27766;52.174;5.456;2022-08-06T04:39:27;5.70;;;1.55;;
42110;SDS011;27766;52.174;5.456;2022-08-06T04:42:15;6.40;;;2.03;;
42110;SDS011;27766;52.174;5.456;2022-08-06T04:44:44;3.17;;;1.55;;
42110;SDS011;27766;52.174;5.456;2022-08-06T04:47:25;2.58;;;1.35;;
42110;SDS011;27766;52.174;5.456;2022-08-06T04:50:08;8.15;;;1.63;;
42110;SDS011;27766;52.174;5.456;2022-08-06T04:52:37;2.70;;;1.23;;
42110;SDS011;27766;52.174;5.456;2022-08-06T04:55:19;3.85;;;1.58;;
42110;SDS011;27766;52.174;5.456;2022-08-06T04:58:01;3.58;;;1.23;;
42110;SDS011;27766;52.174;5.456;2022-08-06T05:00:40;3.47;;;1.73;;
42110;SDS011;27766;52.174;5.456;2022-08-06T05:03:31;6.07;;;2.20;;
42110;SDS011;27766;52.174;5.456;2022-08-06T05:06:39;3.85;;;1.83;;
42110;SDS011;27766;52.174;5.456;2022-08-06T05:09:22;2.08;;;1.48;;
42110;SDS011;27766;52.174;5.456;2022-08-06T05:12:13;4.15;;;1.20;;
42110;SDS011;27766;52.174;5.456;2022-08-06T05:14:53;6.43;;;1.77;;
42110;SDS011;27766;52.174;5.456;2022-08-06T05:17:51;1.85;;;1.35;;
42110;SDS011;27766;52.174;5.456;2022-08-06T05:20:28;6.80;;;1.75;;
42110;SDS011;27766;52.174;5.456;2022-08-06T05:23:12;4.82;;;2.03;;
42110;SDS011;27766;52.174;5.456;2022-08-06T05:25:47;2.63;;;1.20;;
42110;SDS011;27766;52.174;5.456;2022-08-06T05:28:22;8.85;;;1.52;;
42110;SDS011;27766;52.174;5.456;2022-08-06T05:30:54;4.97;;;1.95;;
42110;SDS011;27766;52.174;5.456;2022-08-06T05:33:27;5.93;;;1.55;;
42110;SDS011;27766;52.174;5.456;2022-08-06T05:36:00;3.33;;;1.15;;
42110;SDS011;27766;52.174;5.456;2022-08-06T05:38:33;4.90;;;1.27;;
42110;SDS011;27766;52.174;5.456;2022-08-06T05:41:08;4.80;;;1.48;;
42110;SDS011;27766;52.174;5.456;2022-08-06T05:43:37;3.08;;;1.55;;
42110;SDS011;27766;52.174;5.456;2022-08-06T05:46:27;2.97;;;1.30;;
42110;SDS011;27766;52.174;5.456;2022-08-06T05:49:05;7.85;;;1.25;;
42110;SDS011;27766;52.174;5.456;2022-08-06T05:54:41;5.22;;;0.85;;
42110;SDS011;27766;52.174;5.456;2022-08-06T05:57:19;3.05;;;1.27;;
42110;SDS011;27766;52.174;5.456;2022-08-06T06:00:09;1.90;;;1.13;;
42110;SDS011;27766;52.174;5.456;2022-08-06T06:03:00;5.03;;;1.00;;
42110;SDS011;27766;52.174;5.456;2022-08-06T06:05:32;7.90;;;1.45;;
42110;SDS011;27766;52.174;5.456;2022-08-06T06:08:21;4.95;;;1.40;;
42110;SDS011;27766;52.174;5.456;2022-08-06T06:11:06;3.38;;;1.17;;
42110;SDS011;27766;52.174;5.456;2022-08-06T06:13:36;5.88;;;1.13;;
42110;SDS011;27766;52.174;5.456;2022-08-06T06:21:47;2.20;;;0.85;;
42110;SDS011;27766;52.174;5.456;2022-08-06T06:30:17;2.90;;;1.00;;
42110;SDS011;27766;52.174;5.456;2022-08-06T06:33:19;3.42;;;1.80;;
42110;SDS011;27766;52.174;5.456;2022-08-06T06:36:14;3.53;;;1.40;;
42110;SDS011;27766;52.174;5.456;2022-08-06T06:41:36;2.10;;;0.77;;
42110;SDS011;27766;52.174;5.456;2022-08-06T06:50:27;1.58;;;0.80;;
42110;SDS011;27766;52.174;5.456;2022-08-06T06:53:03;2.47;;;0.70;;
42110;SDS011;27766;52.174;5.456;2022-08-06T06:55:43;1.30;;;0.60;;
42110;SDS011;27766;52.174;5.456;2022-08-06T06:58:31;3.08;;;0.80;;
42110;SDS011;27766;52.174;5.456;2022-08-06T07:01:13;1.90;;;1.10;;
42110;SDS011;27766;52.174;5.456;2022-08-06T07:03:59;0.88;;;0.50;;
42110;SDS011;27766;52.174;5.456;2022-08-06T07:06:30;1.33;;;0.57;;
42110;SDS011;27766;52.174;5.456;2022-08-06T07:09:16;2.85;;;0.98;;
42110;SDS011;27766;52.174;5.456;2022-08-06T07:12:07;1.15;;;0.60;;
42110;SDS011;27766;52.174;5.456;2022-08-06T07:14:47;3.67;;;0.40;;
42110;SDS011;27766;52.174;5.456;2022-08-06T07:17:27;0.88;;;0.52;;
42110;SDS011;27766;52.174;5.456;2022-08-06T07:20:18;1.95;;;0.43;;
42110;SDS011;27766;52.174;5.456;2022-08-06T07:22:52;0.90;;;0.60;;
42110;SDS011;27766;52.174;5.456;2022-08-06T07:25:43;2.03;;;0.63;;
42110;SDS011;27766;52.174;5.456;2022-08-06T07:28:22;2.58;;;0.65;;
42110;SDS011;27766;52.174;5.456;2022-08-06T07:30:56;1.00;;;0.70;;
42110;SDS011;27766;52.174;5.456;2022-08-06T07:33:40;4.50;;;0.60;;
42110;SDS011;27766;52.174;5.456;2022-08-06T07:36:37;2.13;;;0.73;;
42110;SDS011;27766;52.174;5.456;2022-08-06T07:39:23;1.23;;;0.80;;
42110;SDS011;27766;52.174;5.456;2022-08-06T07:42:00;4.32;;;0.47;;
42110;SDS011;27766;52.174;5.456;2022-08-06T07:44:42;1.00;;;0.50;;
42110;SDS011;27766;52.174;5.456;2022-08-06T07:47:24;2.97;;;0.32;;
42110;SDS011;27766;52.174;5.456;2022-08-06T07:50:20;1.52;;;0.68;;
42110;SDS011;27766;52.174;5.456;2022-08-06T07:52:54;1.45;;;0.90;;
42110;SDS011;27766;52.174;5.456;2022-08-06T07:55:24;1.33;;;0.40;;
42110;SDS011;27766;52.174;5.456;2022-08-06T07:58:05;1.35;;;0.75;;
42110;SDS011;27766;52.174;5.456;2022-08-06T08:00:34;0.68;;;0.40;;
42110;SDS011;27766;52.174;5.456;2022-08-06T08:03:04;1.23;;;0.63;;
42110;SDS011;27766;52.174;5.456;2022-08-06T08:06:12;8.55;;;0.70;;
42110;SDS011;27766;52.174;5.456;2022-08-06T08:08:52;0.77;;;0.50;;
42110;SDS011;27766;52.174;5.456;2022-08-06T08:11:23;1.27;;;0.40;;
42110;SDS011;27766;52.174;5.456;2022-08-06T08:14:13;3.70;;;0.68;;
42110;SDS011;27766;52.174;5.456;2022-08-06T08:16:45;1.40;;;0.40;;
42110;SDS011;27766;52.174;5.456;2022-08-06T08:19:28;1.27;;;0.55;;
42110;SDS011;27766;52.174;5.456;2022-08-06T08:24:42;2.92;;;0.77;;
42110;SDS011;27766;52.174;5.456;2022-08-06T08:27:22;1.13;;;0.50;;
42110;SDS011;27766;52.174;5.456;2022-08-06T08:29:52;2.20;;;0.70;;
42110;SDS011;27766;52.174;5.456;2022-08-06T08:32:25;4.30;;;0.85;;
42110;SDS011;27766;52.174;5.456;2022-08-06T08:34:52;1.52;;;0.50;;
42110;SDS011;27766;52.174;5.456;2022-08-06T08:37:23;2.97;;;0.88;;
42110;SDS011;27766;52.174;5.456;2022-08-06T08:39:58;1.45;;;0.63;;
42110;SDS011;27766;52.174;5.456;2022-08-06T08:42:28;2.90;;;0.68;;
42110;SDS011;27766;52.174;5.456;2022-08-06T08:45:04;1.92;;;0.73;;
42110;SDS011;27766;52.174;5.456;2022-08-06T08:47:52;1.90;;;0.50;;
42110;SDS011;27766;52.174;5.456;2022-08-06T08:50:30;2.13;;;0.60;;
42110;SDS011;27766;52.174;5.456;2022-08-06T08:53:02;1.10;;;0.47;;
42110;SDS011;27766;52.174;5.456;2022-08-06T08:55:34;1.13;;;0.63;;
42110;SDS011;27766;52.174;5.456;2022-08-06T08:58:22;0.93;;;0.70;;
42110;SDS011;27766;52.174;5.456;2022-08-06T09:01:11;0.68;;;0.30;;
42110;SDS011;27766;52.174;5.456;2022-08-06T09:04:00;1.48;;;0.52;;
42110;SDS011;27766;52.174;5.456;2022-08-06T09:06:30;0.57;;;0.38;;
42110;SDS011;27766;52.174;5.456;2022-08-06T09:09:05;0.55;;;0.30;;
42110;SDS011;27766;52.174;5.456;2022-08-06T09:11:33;3.35;;;0.90;;
42110;SDS011;27766;52.174;5.456;2022-08-06T09:14:22;6.35;;;0.52;;
42110;SDS011;27766;52.174;5.456;2022-08-06T09:17:03;1.38;;;0.57;;
42110;SDS011;27766;52.174;5.456;2022-08-06T09:19:38;2.88;;;0.57;;
42110;SDS011;27766;52.174;5.456;2022-08-06T09:22:07;2.30;;;0.65;;
42110;SDS011;27766;52.174;5.456;2022-08-06T09:24:37;1.27;;;0.38;;
42110;SDS011;27766;52.174;5.456;2022-08-06T09:27:09;1.60;;;0.55;;
42110;SDS011;27766;52.174;5.456;2022-08-06T09:30:03;1.75;;;0.40;;
42110;SDS011;27766;52.174;5.456;2022-08-06T09:32:56;2.45;;;0.32;;
42110;SDS011;27766;52.174;5.456;2022-08-06T09:35:30;3.47;;;0.60;;
42110;SDS011;27766;52.174;5.456;2022-08-06T09:38:11;0.95;;;0.30;;
42110;SDS011;27766;52.174;5.456;2022-08-06T09:43:51;0.80;;;0.40;;
42110;SDS011;27766;52.174;5.456;2022-08-06T09:46:37;1.77;;;0.52;;
42110;SDS011;27766;52.174;5.456;2022-08-06T09:49:04;1.02;;;0.35;;
42110;SDS011;27766;52.174;5.456;2022-08-06T09:52:09;1.02;;;0.50;;
42110;SDS011;27766;52.174;5.456;2022-08-06T09:54:45;1.13;;;0.43;;
42110;SDS011;27766;52.174;5.456;2022-08-06T09:57:26;2.72;;;0.40;;
42110;SDS011;27766;52.174;5.456;2022-08-06T10:00:08;1.20;;;0.30;;
42110;SDS011;27766;52.174;5.456;2022-08-06T10:02:41;3.28;;;0.35;;
42110;SDS011;27766;52.174;5.456;2022-08-06T10:05:17;0.80;;;0.30;;
42110;SDS011;27766;52.174;5.456;2022-08-06T10:08:00;2.92;;;0.45;;
42110;SDS011;27766;52.174;5.456;2022-08-06T10:10:47;1.40;;;0.52;;
42110;SDS011;27766;52.174;5.456;2022-08-06T10:13:19;1.38;;;0.70;;
42110;SDS011;27766;52.174;5.456;2022-08-06T10:16:26;2.33;;;0.50;;
42110;SDS011;27766;52.174;5.456;2022-08-06T10:18:57;2.22;;;0.32;;
42110;SDS011;27766;52.174;5.456;2022-08-06T10:21:45;3.65;;;0.40;;
42110;SDS011;27766;52.174;5.456;2022-08-06T10:24:13;0.95;;;0.55;;
42110;SDS011;27766;52.174;5.456;2022-08-06T10:26:51;0.57;;;0.40;;
42110;SDS011;27766;52.174;5.456;2022-08-06T10:29:21;0.47;;;0.32;;
42110;SDS011;27766;52.174;5.456;2022-08-06T10:32:00;0.60;;;0.40;;
42110;SDS011;27766;52.174;5.456;2022-08-06T10:34:37;1.23;;;0.45;;
42110;SDS011;27766;52.174;5.456;2022-08-06T10:37:06;0.47;;;0.30;;
42110;SDS011;27766;52.174;5.456;2022-08-06T10:39:58;3.55;;;0.40;;
42110;SDS011;27766;52.174;5.456;2022-08-06T10:42:37;1.63;;;0.35;;
42110;SDS011;27766;52.174;5.456;2022-08-06T10:45:09;0.57;;;0.40;;
42110;SDS011;27766;52.174;5.456;2022-08-06T10:47:44;0.30;;;0.20;;
42110;SDS011;27766;52.174;5.456;2022-08-06T10:50:33;0.40;;;0.30;;
42110;SDS011;27766;52.174;5.456;2022-08-06T10:53:21;2.15;;;0.68;;
42110;SDS011;27766;52.174;5.456;2022-08-06T10:56:12;2.03;;;0.40;;
42110;SDS011;27766;52.174;5.456;2022-08-06T10:58:47;0.55;;;0.38;;
42110;SDS011;27766;52.174;5.456;2022-08-06T11:01:34;0.90;;;0.47;;
42110;SDS011;27766;52.174;5.456;2022-08-06T11:04:33;0.30;;;0.25;;
42110;SDS011;27766;52.174;5.456;2022-08-06T11:07:16;0.95;;;0.50;;
42110;SDS011;27766;52.174;5.456;2022-08-06T11:16:21;0.45;;;0.38;;
42110;SDS011;27766;52.174;5.456;2022-08-06T11:22:08;0.20;;;0.20;;
42110;SDS011;27766;52.174;5.456;2022-08-06T11:24:48;0.20;;;0.20;;
42110;SDS011;27766;52.174;5.456;2022-08-06T11:30:44;0.60;;;0.40;;
42110;SDS011;27766;52.174;5.456;2022-08-06T11:36:07;0.60;;;0.43;;
42110;SDS011;27766;52.174;5.456;2022-08-06T11:41:25;0.98;;;0.50;;
42110;SDS011;27766;52.174;5.456;2022-08-06T11:44:17;1.23;;;0.50;;
42110;SDS011;27766;52.174;5.456;2022-08-06T11:50:03;1.25;;;0.52;;
42110;SDS011;27766;52.174;5.456;2022-08-06T11:52:53;1.25;;;0.75;;
42110;SDS011;27766;52.174;5.456;2022-08-06T11:55:23;1.20;;;1.00;;
42110;SDS011;27766;52.174;5.456;2022-08-06T12:00:54;0.80;;;0.52;;
42110;SDS011;27766;52.174;5.456;2022-08-06T12:03:50;2.60;;;0.65;;
42110;SDS011;27766;52.174;5.456;2022-08-06T12:06:25;1.90;;;0.73;;
42110;SDS011;27766;52.174;5.456;2022-08-06T12:09:08;5.43;;;0.68;;
42110;SDS011;27766;52.174;5.456;2022-08-06T12:11:50;2.72;;;0.52;;
42110;SDS011;27766;52.174;5.456;2022-08-06T12:14:37;0.35;;;0.35;;
42110;SDS011;27766;52.174;5.456;2022-08-06T12:17:15;0.40;;;0.40;;
42110;SDS011;27766;52.174;5.456;2022-08-06T12:19:49;3.13;;;0.57;;
42110;SDS011;27766;52.174;5.456;2022-08-06T12:22:29;2.75;;;0.60;;
42110;SDS011;27766;52.174;5.456;2022-08-06T12:24:59;1.48;;;0.57;;
42110;SDS011;27766;52.174;5.456;2022-08-06T12:27:39;2.35;;;0.80;;
42110;SDS011;27766;52.174;5.456;2022-08-06T12:30:21;0.85;;;0.60;;
42110;SDS011;27766;52.174;5.456;2022-08-06T12:33:05;0.50;;;0.43;;
42110;SDS011;27766;52.174;5.456;2022-08-06T12:35:59;0.40;;;0.32;;
42110;SDS011;27766;52.174;5.456;2022-08-06T12:38:28;4.38;;;0.43;;
42110;SDS011;27766;52.174;5.456;2022-08-06T12:41:05;0.47;;;0.35;;
42110;SDS011;27766;52.174;5.456;2022-08-06T12:43:38;2.33;;;0.55;;
42110;SDS011;27766;52.174;5.456;2022-08-06T12:46:23;0.55;;;0.40;;
42110;SDS011;27766;52.174;5.456;2022-08-06T12:48:57;0.65;;;0.50;;
42110;SDS011;27766;52.174;5.456;2022-08-06T12:51:29;1.42;;;0.30;;
42110;SDS011;27766;52.174;5.456;2022-08-06T12:54:02;0.28;;;0.20;;
42110;SDS011;27766;52.174;5.456;2022-08-06T12:56:32;1.15;;;0.38;;
42110;SDS011;27766;52.174;5.456;2022-08-06T12:59:10;0.30;;;0.30;;
42110;SDS011;27766;52.174;5.456;2022-08-06T13:01:50;0.52;;;0.30;;
42110;SDS011;27766;52.174;5.456;2022-08-06T13:04:43;0.70;;;0.47;;
42110;SDS011;27766;52.174;5.456;2022-08-06T13:07:13;1.38;;;0.52;;
42110;SDS011;27766;52.174;5.456;2022-08-06T13:09:42;1.30;;;0.50;;
42110;SDS011;27766;52.174;5.456;2022-08-06T13:12:30;2.55;;;0.95;;
42110;SDS011;27766;52.174;5.456;2022-08-06T13:15:17;1.15;;;0.40;;
42110;SDS011;27766;52.174;5.456;2022-08-06T13:18:05;1.08;;;0.60;;
42110;SDS011;27766;52.174;5.456;2022-08-06T13:21:01;1.98;;;0.55;;
42110;SDS011;27766;52.174;5.456;2022-08-06T13:23:44;1.65;;;0.40;;
42110;SDS011;27766;52.174;5.456;2022-08-06T13:26:16;0.57;;;0.50;;
42110;SDS011;27766;52.174;5.456;2022-08-06T13:32:06;1.00;;;0.45;;
42110;SDS011;27766;52.174;5.456;2022-08-06T13:34:57;1.17;;;0.60;;
42110;SDS011;27766;52.174;5.456;2022-08-06T13:40:48;0.95;;;0.40;;
42110;SDS011;27766;52.174;5.456;2022-08-06T13:43:37;0.70;;;0.30;;
42110;SDS011;27766;52.174;5.456;2022-08-06T13:46:23;4.13;;;0.50;;
42110;SDS011;27766;52.174;5.456;2022-08-06T13:48:59;2.80;;;0.90;;
42110;SDS011;27766;52.174;5.456;2022-08-06T13:51:38;1.85;;;0.68;;
42110;SDS011;27766;52.174;5.456;2022-08-06T13:54:21;1.00;;;0.50;;
42110;SDS011;27766;52.174;5.456;2022-08-06T13:56:53;1.10;;;0.50;;
42110;SDS011;27766;52.174;5.456;2022-08-06T13:59:26;0.82;;;0.30;;
42110;SDS011;27766;52.174;5.456;2022-08-06T14:02:08;1.23;;;0.70;;
42110;SDS011;27766;52.174;5.456;2022-08-06T14:04:38;0.60;;;0.50;;
42110;SDS011;27766;52.174;5.456;2022-08-06T14:07:06;1.52;;;0.63;;
42110;SDS011;27766;52.174;5.456;2022-08-06T14:09:35;0.65;;;0.40;;
42110;SDS011;27766;52.174;5.456;2022-08-06T14:12:22;3.75;;;0.57;;
42110;SDS011;27766;52.174;5.456;2022-08-06T14:14:56;1.35;;;0.40;;
42110;SDS011;27766;52.174;5.456;2022-08-06T14:17:25;0.73;;;0.57;;
42110;SDS011;27766;52.174;5.456;2022-08-06T14:20:01;0.82;;;0.57;;
42110;SDS011;27766;52.174;5.456;2022-08-06T14:22:45;1.98;;;1.15;;
42110;SDS011;27766;52.174;5.456;2022-08-06T14:25:15;0.55;;;0.30;;
42110;SDS011;27766;52.174;5.456;2022-08-06T14:27:42;0.82;;;0.70;;
42110;SDS011;27766;52.174;5.456;2022-08-06T14:30:16;0.57;;;0.40;;
42110;SDS011;27766;52.174;5.456;2022-08-06T14:33:01;0.70;;;0.50;;
42110;SDS011;27766;52.174;5.456;2022-08-06T14:35:37;0.93;;;0.50;;
42110;SDS011;27766;52.174;5.456;2022-08-06T14:38:23;1.50;;;0.70;;
42110;SDS011;27766;52.174;5.456;2022-08-06T14:40:58;3.05;;;0.70;;
42110;SDS011;27766;52.174;5.456;2022-08-06T14:44:04;3.65;;;0.45;;
42110;SDS011;27766;52.174;5.456;2022-08-06T14:46:52;1.02;;;0.60;;
42110;SDS011;27766;52.174;5.456;2022-08-06T14:49:21;0.60;;;0.50;;
42110;SDS011;27766;52.174;5.456;2022-08-06T14:51:48;1.13;;;0.70;;
42110;SDS011;27766;52.174;5.456;2022-08-06T14:54:36;0.77;;;0.52;;
42110;SDS011;27766;52.174;5.456;2022-08-06T14:57:08;1.15;;;0.50;;
42110;SDS011;27766;52.174;5.456;2022-08-06T14:59:42;3.92;;;0.65;;
42110;SDS011;27766;52.174;5.456;2022-08-06T15:02:23;2.90;;;1.17;;
42110;SDS011;27766;52.174;5.456;2022-08-06T15:05:00;1.55;;;0.90;;
42110;SDS011;27766;52.174;5.456;2022-08-06T15:07:27;1.42;;;0.98;;
42110;SDS011;27766;52.174;5.456;2022-08-06T15:10:08;2.15;;;0.70;;
42110;SDS011;27766;52.174;5.456;2022-08-06T15:12:53;2.35;;;1.02;;
42110;SDS011;27766;52.174;5.456;2022-08-06T15:15:29;9.95;;;2.40;;
42110;SDS011;27766;52.174;5.456;2022-08-06T15:18:13;38.80;;;7.80;;
42110;SDS011;27766;52.174;5.456;2022-08-06T15:21:01;3.00;;;0.85;;
42110;SDS011;27766;52.174;5.456;2022-08-06T15:23:30;1.10;;;0.65;;
42110;SDS011;27766;52.174;5.456;2022-08-06T15:26:17;1.27;;;0.70;;
42110;SDS011;27766;52.174;5.456;2022-08-06T15:29:05;3.47;;;1.00;;
42110;SDS011;27766;52.174;5.456;2022-08-06T15:31:41;3.53;;;1.08;;
42110;SDS011;27766;52.174;5.456;2022-08-06T15:34:08;1.20;;;0.75;;
42110;SDS011;27766;52.174;5.456;2022-08-06T15:36:39;4.10;;;0.60;;
42110;SDS011;27766;52.174;5.456;2022-08-06T15:39:27;0.88;;;0.55;;
42110;SDS011;27766;52.174;5.456;2022-08-06T15:42:14;1.58;;;0.70;;
42110;SDS011;27766;52.174;5.456;2022-08-06T15:44:43;1.55;;;1.00;;
42110;SDS011;27766;52.174;5.456;2022-08-06T15:47:12;1.38;;;0.95;;
42110;SDS011;27766;52.174;5.456;2022-08-06T15:49:58;1.60;;;0.90;;
42110;SDS011;27766;52.174;5.456;2022-08-06T15:52:31;1.45;;;0.93;;
42110;SDS011;27766;52.174;5.456;2022-08-06T15:55:08;1.70;;;0.82;;
42110;SDS011;27766;52.174;5.456;2022-08-06T15:57:43;1.20;;;0.90;;
42110;SDS011;27766;52.174;5.456;2022-08-06T16:00:33;2.88;;;0.85;;
42110;SDS011;27766;52.174;5.456;2022-08-06T16:03:06;1.80;;;0.88;;
42110;SDS011;27766;52.174;5.456;2022-08-06T16:05:36;1.60;;;1.00;;
42110;SDS011;27766;52.174;5.456;2022-08-06T16:08:24;1.27;;;1.00;;
42110;SDS011;27766;52.174;5.456;2022-08-06T16:11:05;3.55;;;0.85;;
42110;SDS011;27766;52.174;5.456;2022-08-06T16:13:35;1.63;;;0.60;;
42110;SDS011;27766;52.174;5.456;2022-08-06T16:16:04;1.65;;;0.85;;
42110;SDS011;27766;52.174;5.456;2022-08-06T16:18:34;1.00;;;0.60;;
42110;SDS011;27766;52.174;5.456;2022-08-06T16:21:18;1.40;;;0.80;;
42110;SDS011;27766;52.174;5.456;2022-08-06T16:23:45;1.10;;;0.60;;
42110;SDS011;27766;52.174;5.456;2022-08-06T16:26:28;1.40;;;0.80;;
42110;SDS011;27766;52.174;5.456;2022-08-06T16:29:14;1.20;;;0.73;;
42110;SDS011;27766;52.174;5.456;2022-08-06T16:31:43;1.15;;;0.80;;
42110;SDS011;27766;52.174;5.456;2022-08-06T16:34:19;3.50;;;1.60;;
42110;SDS011;27766;52.174;5.456;2022-08-06T16:36:56;1.83;;;1.05;;
42110;SDS011;27766;52.174;5.456;2022-08-06T16:39:29;3.28;;;1.15;;
42110;SDS011;27766;52.174;5.456;2022-08-06T16:42:16;2.08;;;0.80;;
42110;SDS011;27766;52.174;5.456;2022-08-06T16:44:45;1.17;;;0.70;;
42110;SDS011;27766;52.174;5.456;2022-08-06T16:47:28;1.40;;;0.93;;
42110;SDS011;27766;52.174;5.456;2022-08-06T16:50:18;1.08;;;0.77;;
42110;SDS011;27766;52.174;5.456;2022-08-06T16:52:53;0.85;;;0.60;;
42110;SDS011;27766;52.174;5.456;2022-08-06T16:55:44;2.00;;;1.10;;
42110;SDS011;27766;52.174;5.456;2022-08-06T16:58:14;4.00;;;0.70;;
42110;SDS011;27766;52.174;5.456;2022-08-06T17:01:02;1.88;;;0.75;;
42110;SDS011;27766;52.174;5.456;2022-08-06T17:03:53;1.77;;;0.85;;
42110;SDS011;27766;52.174;5.456;2022-08-06T17:06:27;2.45;;;1.05;;
42110;SDS011;27766;52.174;5.456;2022-08-06T17:08:57;1.23;;;0.55;;
42110;SDS011;27766;52.174;5.456;2022-08-06T17:11:26;1.58;;;0.80;;